sensor_id;sensor_type;location;lat;lon;timestamp;temperature;humidity
19017;DHT22;9641;51.494;6.670;2023-04-01T00:00:23;9.70;99.90
19017;DHT22;9641;51.494;6.670;2023-04-01T00:02:50;9.80;99.90
19017;DHT22;9641;51.494;6.670;2023-04-01T00:05:17;9.70;99.90
19017;DHT22;9641;51.494;6.670;2023-04-01T00:07:44;9.70;99.90
19017;DHT22;9641;51.494;6.670;2023-04-01T00:10:12;9.70;99.90
19017;DHT22;9641;51.494;6.670;2023-04-01T00:12:40;9.70;99.90
19017;DHT22;9641;51.494;6.670;2023-04-01T00:15:09;9.70;99.90
19017;DHT22;9641;51.494;6.670;2023-04-01T00:17:36;9.80;99.90
19017;DHT22;9641;51.494;6.670;2023-04-01T00:20:04;9.80;99.90
19017;DHT22;9641;51.494;6.670;2023-04-01T00:22:32;9.80;99.90
19017;DHT22;9641;51.494;6.670;2023-04-01T00:25:00;9.80;99.90
19017;DHT22;9641;51.494;6.670;2023-04-01T00:27:27;9.70;99.90
19017;DHT22;9641;51.494;6.670;2023-04-01T00:29:56;9.80;99.90
19017;DHT22;9641;51.494;6.670;2023-04-01T00:32:23;9.80;99.90
19017;DHT22;9641;51.494;6.670;2023-04-01T00:34:50;9.80;99.90
19017;DHT22;9641;51.494;6.670;2023-04-01T00:37:19;9.80;99.90
19017;DHT22;9641;51.494;6.670;2023-04-01T00:39:46;9.80;99.90
19017;DHT22;9641;51.494;6.670;2023-04-01T00:42:13;9.80;99.90
19017;DHT22;9641;51.494;6.670;2023-04-01T00:44:40;9.80;99.90
19017;DHT22;9641;51.494;6.670;2023-04-01T00:47:09;9.80;99.90
19017;DHT22;9641;51.494;6.670;2023-04-01T00:49:39;9.80;99.90
19017;DHT22;9641;51.494;6.670;2023-04-01T00:52:08;9.80;99.90
19017;DHT22;9641;51.494;6.670;2023-04-01T00:54:37;9.70;99.90
19017;DHT22;9641;51.494;6.670;2023-04-01T00:57:08;9.70;99.90
19017;DHT22;9641;51.494;6.670;2023-04-01T00:59:40;9.80;99.90
19017;DHT22;9641;51.494;6.670;2023-04-01T01:02:11;9.70;99.90
19017;DHT22;9641;51.494;6.670;2023-04-01T01:04:39;9.70;99.90
19017;DHT22;9641;51.494;6.670;2023-04-01T01:07:14;9.70;99.90
19017;DHT22;9641;51.494;6.670;2023-04-01T01:09:50;9.70;99.90
19017;DHT22;9641;51.494;6.670;2023-04-01T01:12:23;9.60;99.90
19017;DHT22;9641;51.494;6.670;2023-04-01T01:14:56;9.60;99.90
19017;DHT22;9641;51.494;6.670;2023-04-01T01:17:33;9.60;99.90
19017;DHT22;9641;51.494;6.670;2023-04-01T01:20:40;9.60;99.90
19017;DHT22;9641;51.494;6.670;2023-04-01T01:26:37;9.60;99.90
19017;DHT22;9641;51.494;6.670;2023-04-01T01:29:14;9.60;99.90
19017;DHT22;9641;51.494;6.670;2023-04-01T01:31:50;9.60;99.90
19017;DHT22;9641;51.494;6.670;2023-04-01T01:34:23;9.60;99.90
19017;DHT22;9641;51.494;6.670;2023-04-01T01:37:00;9.60;99.90
19017;DHT22;9641;51.494;6.670;2023-04-01T01:39:31;9.60;99.90
19017;DHT22;9641;51.494;6.670;2023-04-01T01:42:02;9.60;99.90
19017;DHT22;9641;51.494;6.670;2023-04-01T01:44:31;9.60;99.90
19017;DHT22;9641;51.494;6.670;2023-04-01T01:47:00;9.60;99.90
19017;DHT22;9641;51.494;6.670;2023-04-01T01:49:28;9.60;99.90
19017;DHT22;9641;51.494;6.670;2023-04-01T01:51:57;9.60;99.90
19017;DHT22;9641;51.494;6.670;2023-04-01T01:54:24;9.60;99.90
19017;DHT22;9641;51.494;6.670;2023-04-01T01:57:05;9.60;99.90
19017;DHT22;9641;51.494;6.670;2023-04-01T01:59:36;9.60;99.90
19017;DHT22;9641;51.494;6.670;2023-04-01T02:02:04;9.60;99.90
19017;DHT22;9641;51.494;6.670;2023-04-01T02:04:34;9.60;99.90
19017;DHT22;9641;51.494;6.670;2023-04-01T02:07:06;9.60;99.90
19017;DHT22;9641;51.494;6.670;2023-04-01T02:09:33;9.60;99.90
19017;DHT22;9641;51.494;6.670;2023-04-01T02:12:04;9.60;99.90
19017;DHT22;9641;51.494;6.670;2023-04-01T02:14:40;9.60;99.90
19017;DHT22;9641;51.494;6.670;2023-04-01T02:17:10;9.60;99.90
19017;DHT22;9641;51.494;6.670;2023-04-01T02:19:40;9.60;99.90
19017;DHT22;9641;51.494;6.670;2023-04-01T02:22:13;9.60;99.90
19017;DHT22;9641;51.494;6.670;2023-04-01T02:24:41;9.60;99.90
19017;DHT22;9641;51.494;6.670;2023-04-01T02:27:09;9.60;99.90
19017;DHT22;9641;51.494;6.670;2023-04-01T02:29:36;9.60;99.90
19017;DHT22;9641;51.494;6.670;2023-04-01T02:32:07;9.60;99.90
19017;DHT22;9641;51.494;6.670;2023-04-01T02:34:35;9.50;99.90
19017;DHT22;9641;51.494;6.670;2023-04-01T02:37:02;9.50;99.90
19017;DHT22;9641;51.494;6.670;2023-04-01T02:39:31;9.50;99.90
19017;DHT22;9641;51.494;6.670;2023-04-01T02:41:58;9.50;99.90
19017;DHT22;9641;51.494;6.670;2023-04-01T02:44:25;9.50;99.90
19017;DHT22;9641;51.494;6.670;2023-04-01T02:46:52;9.50;99.90
19017;DHT22;9641;51.494;6.670;2023-04-01T02:49:19;9.50;99.90
19017;DHT22;9641;51.494;6.670;2023-04-01T02:51:46;9.50;99.90
19017;DHT22;9641;51.494;6.670;2023-04-01T02:54:13;9.50;99.90
19017;DHT22;9641;51.494;6.670;2023-04-01T02:56:42;9.50;99.90
19017;DHT22;9641;51.494;6.670;2023-04-01T02:59:09;9.50;99.90
19017;DHT22;9641;51.494;6.670;2023-04-01T03:01:36;9.50;99.90
19017;DHT22;9641;51.494;6.670;2023-04-01T03:04:03;9.50;99.90
19017;DHT22;9641;51.494;6.670;2023-04-01T03:06:30;9.60;99.90
19017;DHT22;9641;51.494;6.670;2023-04-01T03:08:57;9.50;99.90
19017;DHT22;9641;51.494;6.670;2023-04-01T03:11:25;9.60;99.90
19017;DHT22;9641;51.494;6.670;2023-04-01T03:13:54;9.50;99.90
19017;DHT22;9641;51.494;6.670;2023-04-01T03:16:20;9.50;99.90
19017;DHT22;9641;51.494;6.670;2023-04-01T03:18:49;9.50;99.90
19017;DHT22;9641;51.494;6.670;2023-04-01T03:21:20;9.50;99.90
19017;DHT22;9641;51.494;6.670;2023-04-01T03:23:49;9.50;99.90
19017;DHT22;9641;51.494;6.670;2023-04-01T03:26:16;9.50;99.90
19017;DHT22;9641;51.494;6.670;2023-04-01T03:28:44;9.50;99.90
19017;DHT22;9641;51.494;6.670;2023-04-01T03:31:13;9.50;99.90
19017;DHT22;9641;51.494;6.670;2023-04-01T03:33:47;9.50;99.90
19017;DHT22;9641;51.494;6.670;2023-04-01T03:36:14;9.50;99.90
19017;DHT22;9641;51.494;6.670;2023-04-01T03:38:41;9.50;99.90
19017;DHT22;9641;51.494;6.670;2023-04-01T03:41:12;9.50;99.90
19017;DHT22;9641;51.494;6.670;2023-04-01T03:43:39;9.50;99.90
19017;DHT22;9641;51.494;6.670;2023-04-01T03:46:06;9.50;99.90
19017;DHT22;9641;51.494;6.670;2023-04-01T03:48:34;9.50;99.90
19017;DHT22;9641;51.494;6.670;2023-04-01T03:51:01;9.50;99.90
19017;DHT22;9641;51.494;6.670;2023-04-01T03:53:30;9.50;99.90
19017;DHT22;9641;51.494;6.670;2023-04-01T03:56:04;9.50;99.90
19017;DHT22;9641;51.494;6.670;2023-04-01T03:58:31;9.50;99.90
19017;DHT22;9641;51.494;6.670;2023-04-01T04:00:58;9.50;99.90
19017;DHT22;9641;51.494;6.670;2023-04-01T04:03:25;9.50;99.90
19017;DHT22;9641;51.494;6.670;2023-04-01T04:05:53;9.50;99.90
19017;DHT22;9641;51.494;6.670;2023-04-01T04:08:21;9.50;99.90
19017;DHT22;9641;51.494;6.670;2023-04-01T04:10:54;9.50;99.90
19017;DHT22;9641;51.494;6.670;2023-04-01T04:13:22;9.60;99.90
19017;DHT22;9641;51.494;6.670;2023-04-01T04:15:56;9.50;99.90
19017;DHT22;9641;51.494;6.670;2023-04-01T04:18:23;9.50;99.90
19017;DHT22;9641;51.494;6.670;2023-04-01T04:20:50;9.50;99.90
19017;DHT22;9641;51.494;6.670;2023-04-01T04:23:19;9.50;99.90
19017;DHT22;9641;51.494;6.670;2023-04-01T04:25:54;9.50;99.90
19017;DHT22;9641;51.494;6.670;2023-04-01T04:28:22;9.50;99.90
19017;DHT22;9641;51.494;6.670;2023-04-01T04:30:49;9.50;99.90
19017;DHT22;9641;51.494;6.670;2023-04-01T04:33:16;9.50;99.90
19017;DHT22;9641;51.494;6.670;2023-04-01T04:35:43;9.50;99.90
19017;DHT22;9641;51.494;6.670;2023-04-01T04:38:10;9.60;99.90
19017;DHT22;9641;51.494;6.670;2023-04-01T04:40:39;9.50;99.90
19017;DHT22;9641;51.494;6.670;2023-04-01T04:43:07;9.50;99.90
19017;DHT22;9641;51.494;6.670;2023-04-01T04:45:36;9.50;99.90
19017;DHT22;9641;51.494;6.670;2023-04-01T04:48:03;9.50;99.90
19017;DHT22;9641;51.494;6.670;2023-04-01T04:50:31;9.50;99.90
19017;DHT22;9641;51.494;6.670;2023-04-01T04:52:58;9.50;99.90
19017;DHT22;9641;51.494;6.670;2023-04-01T04:55:25;9.50;99.90
19017;DHT22;9641;51.494;6.670;2023-04-01T04:58:13;9.50;99.90
19017;DHT22;9641;51.494;6.670;2023-04-01T05:00:42;9.50;99.90
19017;DHT22;9641;51.494;6.670;2023-04-01T05:03:17;9.50;99.90
19017;DHT22;9641;51.494;6.670;2023-04-01T05:05:49;9.50;99.90
19017;DHT22;9641;51.494;6.670;2023-04-01T05:08:17;9.50;99.90
19017;DHT22;9641;51.494;6.670;2023-04-01T05:10:44;9.50;99.90
19017;DHT22;9641;51.494;6.670;2023-04-01T05:13:12;9.50;99.90
19017;DHT22;9641;51.494;6.670;2023-04-01T05:15:41;9.50;99.90
19017;DHT22;9641;51.494;6.670;2023-04-01T05:18:08;9.50;99.90
19017;DHT22;9641;51.494;6.670;2023-04-01T05:20:34;9.50;99.90
19017;DHT22;9641;51.494;6.670;2023-04-01T05:23:02;9.50;99.90
19017;DHT22;9641;51.494;6.670;2023-04-01T05:25:29;9.50;99.90
19017;DHT22;9641;51.494;6.670;2023-04-01T05:27:56;9.50;99.90
19017;DHT22;9641;51.494;6.670;2023-04-01T05:30:24;9.50;99.90
19017;DHT22;9641;51.494;6.670;2023-04-01T05:32:59;9.50;99.90
19017;DHT22;9641;51.494;6.670;2023-04-01T05:35:27;9.50;99.90
19017;DHT22;9641;51.494;6.670;2023-04-01T05:37:54;9.50;99.90
19017;DHT22;9641;51.494;6.670;2023-04-01T05:40:21;9.50;99.90
19017;DHT22;9641;51.494;6.670;2023-04-01T05:42:47;9.50;99.90
19017;DHT22;9641;51.494;6.670;2023-04-01T05:45:16;9.50;99.90
19017;DHT22;9641;51.494;6.670;2023-04-01T05:48:16;9.50;99.90
19017;DHT22;9641;51.494;6.670;2023-04-01T05:50:43;9.50;99.90
19017;DHT22;9641;51.494;6.670;2023-04-01T05:53:11;9.50;99.90
19017;DHT22;9641;51.494;6.670;2023-04-01T05:55:41;9.50;99.90
19017;DHT22;9641;51.494;6.670;2023-04-01T05:58:08;9.50;99.90
19017;DHT22;9641;51.494;6.670;2023-04-01T06:00:37;9.50;99.90
19017;DHT22;9641;51.494;6.670;2023-04-01T06:03:04;9.50;99.90
19017;DHT22;9641;51.494;6.670;2023-04-01T06:05:38;9.50;99.90
19017;DHT22;9641;51.494;6.670;2023-04-01T06:08:10;9.50;99.90
19017;DHT22;9641;51.494;6.670;2023-04-01T06:10:48;9.50;99.90
19017;DHT22;9641;51.494;6.670;2023-04-01T06:13:25;9.50;99.90
19017;DHT22;9641;51.494;6.670;2023-04-01T06:16:00;9.50;99.90
19017;DHT22;9641;51.494;6.670;2023-04-01T06:18:50;9.50;99.90
19017;DHT22;9641;51.494;6.670;2023-04-01T06:21:36;9.50;99.90
19017;DHT22;9641;51.494;6.670;2023-04-01T06:24:20;9.50;99.90
19017;DHT22;9641;51.494;6.670;2023-04-01T06:26:55;9.50;99.90
19017;DHT22;9641;51.494;6.670;2023-04-01T06:29:40;9.50;99.90
19017;DHT22;9641;51.494;6.670;2023-04-01T06:32:37;9.40;99.90
19017;DHT22;9641;51.494;6.670;2023-04-01T06:35:31;9.50;99.90
19017;DHT22;9641;51.494;6.670;2023-04-01T06:41:17;9.50;99.90
19017;DHT22;9641;51.494;6.670;2023-04-01T06:43:55;9.50;99.90
19017;DHT22;9641;51.494;6.670;2023-04-01T06:46:47;9.50;99.90
19017;DHT22;9641;51.494;6.670;2023-04-01T06:49:40;9.50;99.90
19017;DHT22;9641;51.494;6.670;2023-04-01T06:52:35;9.50;99.90
19017;DHT22;9641;51.494;6.670;2023-04-01T06:55:32;9.50;99.90
19017;DHT22;9641;51.494;6.670;2023-04-01T06:58:26;9.40;99.90
19017;DHT22;9641;51.494;6.670;2023-04-01T07:00:57;9.50;99.90
19017;DHT22;9641;51.494;6.670;2023-04-01T07:03:30;9.50;99.90
19017;DHT22;9641;51.494;6.670;2023-04-01T07:06:03;9.50;99.90
19017;DHT22;9641;51.494;6.670;2023-04-01T07:08:35;9.50;99.90
19017;DHT22;9641;51.494;6.670;2023-04-01T07:11:08;9.50;99.90
19017;DHT22;9641;51.494;6.670;2023-04-01T07:14:12;9.50;99.90
19017;DHT22;9641;51.494;6.670;2023-04-01T07:16:44;9.50;99.90
19017;DHT22;9641;51.494;6.670;2023-04-01T07:19:16;9.50;99.90
19017;DHT22;9641;51.494;6.670;2023-04-01T07:22:21;9.50;99.90
19017;DHT22;9641;51.494;6.670;2023-04-01T07:25:16;9.50;99.90
19017;DHT22;9641;51.494;6.670;2023-04-01T07:27:52;9.50;99.90
19017;DHT22;9641;51.494;6.670;2023-04-01T07:30:22;9.50;99.90
19017;DHT22;9641;51.494;6.670;2023-04-01T07:32:54;9.50;99.90
19017;DHT22;9641;51.494;6.670;2023-04-01T07:35:30;9.60;99.90
19017;DHT22;9641;51.494;6.670;2023-04-01T07:38:15;9.60;99.90
19017;DHT22;9641;51.494;6.670;2023-04-01T07:40:48;9.60;99.90
19017;DHT22;9641;51.494;6.670;2023-04-01T07:43:27;9.50;99.90
19017;DHT22;9641;51.494;6.670;2023-04-01T07:46:22;9.60;99.90
19017;DHT22;9641;51.494;6.670;2023-04-01T07:49:00;9.60;99.90
19017;DHT22;9641;51.494;6.670;2023-04-01T07:51:33;9.60;99.90
19017;DHT22;9641;51.494;6.670;2023-04-01T07:54:09;9.70;99.90
19017;DHT22;9641;51.494;6.670;2023-04-01T07:56:42;9.60;99.90
19017;DHT22;9641;51.494;6.670;2023-04-01T07:59:20;9.60;99.90
19017;DHT22;9641;51.494;6.670;2023-04-01T08:02:23;9.60;99.90
19017;DHT22;9641;51.494;6.670;2023-04-01T08:05:00;9.60;99.90
19017;DHT22;9641;51.494;6.670;2023-04-01T08:07:38;9.70;99.90
19017;DHT22;9641;51.494;6.670;2023-04-01T08:10:34;9.70;99.90
19017;DHT22;9641;51.494;6.670;2023-04-01T08:13:30;9.70;99.90
19017;DHT22;9641;51.494;6.670;2023-04-01T08:16:14;9.70;99.90
19017;DHT22;9641;51.494;6.670;2023-04-01T08:18:54;9.70;99.90
19017;DHT22;9641;51.494;6.670;2023-04-01T08:21:28;9.70;99.90
19017;DHT22;9641;51.494;6.670;2023-04-01T08:24:06;9.70;99.90
19017;DHT22;9641;51.494;6.670;2023-04-01T08:26:37;9.70;99.90
19017;DHT22;9641;51.494;6.670;2023-04-01T08:29:11;9.70;99.90
19017;DHT22;9641;51.494;6.670;2023-04-01T08:31:44;9.70;99.90
19017;DHT22;9641;51.494;6.670;2023-04-01T08:34:16;9.70;99.90
19017;DHT22;9641;51.494;6.670;2023-04-01T08:36:48;9.80;99.90
19017;DHT22;9641;51.494;6.670;2023-04-01T08:39:19;9.80;99.90
19017;DHT22;9641;51.494;6.670;2023-04-01T08:45:23;9.80;99.90
19017;DHT22;9641;51.494;6.670;2023-04-01T08:48:08;9.90;99.90
19017;DHT22;9641;51.494;6.670;2023-04-01T08:54:02;9.90;99.90
19017;DHT22;9641;51.494;6.670;2023-04-01T08:56:37;9.90;99.90
19017;DHT22;9641;51.494;6.670;2023-04-01T08:59:31;10.00;99.90
19017;DHT22;9641;51.494;6.670;2023-04-01T09:02:31;10.00;99.90
19017;DHT22;9641;51.494;6.670;2023-04-01T09:05:36;10.00;99.90
19017;DHT22;9641;51.494;6.670;2023-04-01T09:08:25;10.10;99.90
19017;DHT22;9641;51.494;6.670;2023-04-01T09:11:05;10.20;99.90
19017;DHT22;9641;51.494;6.670;2023-04-01T09:14:16;10.30;99.90
19017;DHT22;9641;51.494;6.670;2023-04-01T09:17:13;10.40;99.90
19017;DHT22;9641;51.494;6.670;2023-04-01T09:19:58;10.40;99.90
19017;DHT22;9641;51.494;6.670;2023-04-01T09:22:46;10.40;99.90
19017;DHT22;9641;51.494;6.670;2023-04-01T09:25:44;10.50;99.90
19017;DHT22;9641;51.494;6.670;2023-04-01T09:28:18;10.40;99.90
19017;DHT22;9641;51.494;6.670;2023-04-01T09:31:01;10.40;99.90
19017;DHT22;9641;51.494;6.670;2023-04-01T09:34:05;10.40;99.90
19017;DHT22;9641;51.494;6.670;2023-04-01T09:37:06;10.40;99.90
19017;DHT22;9641;51.494;6.670;2023-04-01T09:39:43;10.30;99.90
19017;DHT22;9641;51.494;6.670;2023-04-01T09:45:37;10.30;99.90
19017;DHT22;9641;51.494;6.670;2023-04-01T09:48:21;10.30;99.90
19017;DHT22;9641;51.494;6.670;2023-04-01T09:50:57;10.40;99.90
19017;DHT22;9641;51.494;6.670;2023-04-01T09:53:41;10.30;99.90
19017;DHT22;9641;51.494;6.670;2023-04-01T10:06:09;10.40;99.90
19017;DHT22;9641;51.494;6.670;2023-04-01T10:09:05;10.40;99.90
19017;DHT22;9641;51.494;6.670;2023-04-01T10:12:02;10.40;99.90
19017;DHT22;9641;51.494;6.670;2023-04-01T10:14:56;10.50;99.90
19017;DHT22;9641;51.494;6.670;2023-04-01T10:17:48;10.40;99.90
19017;DHT22;9641;51.494;6.670;2023-04-01T10:23:53;10.40;99.90
19017;DHT22;9641;51.494;6.670;2023-04-01T10:26:38;10.30;99.90
19017;DHT22;9641;51.494;6.670;2023-04-01T10:33:02;10.30;99.90
19017;DHT22;9641;51.494;6.670;2023-04-01T10:36:06;10.40;99.90
19017;DHT22;9641;51.494;6.670;2023-04-01T10:39:19;10.40;99.90
19017;DHT22;9641;51.494;6.670;2023-04-01T10:46:06;10.50;99.90
19017;DHT22;9641;51.494;6.670;2023-04-01T10:51:59;10.40;99.90
19017;DHT22;9641;51.494;6.670;2023-04-01T10:55:22;10.60;99.90
19017;DHT22;9641;51.494;6.670;2023-04-01T10:58:41;10.50;99.90
19017;DHT22;9641;51.494;6.670;2023-04-01T11:02:01;10.50;99.90
19017;DHT22;9641;51.494;6.670;2023-04-01T11:05:57;10.50;99.90
19017;DHT22;9641;51.494;6.670;2023-04-01T11:08:54;10.40;99.90
19017;DHT22;9641;51.494;6.670;2023-04-01T11:15:17;10.40;99.90
19017;DHT22;9641;51.494;6.670;2023-04-01T11:18:19;10.40;99.90
19017;DHT22;9641;51.494;6.670;2023-04-01T11:21:12;10.40;99.90
19017;DHT22;9641;51.494;6.670;2023-04-01T11:23:54;10.40;99.90
19017;DHT22;9641;51.494;6.670;2023-04-01T11:26:34;10.40;99.90
19017;DHT22;9641;51.494;6.670;2023-04-01T11:29:49;10.30;99.90
19017;DHT22;9641;51.494;6.670;2023-04-01T11:32:42;10.40;99.90
19017;DHT22;9641;51.494;6.670;2023-04-01T11:35:42;10.50;99.90
19017;DHT22;9641;51.494;6.670;2023-04-01T11:38:24;10.60;99.90
19017;DHT22;9641;51.494;6.670;2023-04-01T11:41:02;10.60;99.90
19017;DHT22;9641;51.494;6.670;2023-04-01T11:44:03;10.60;99.90
19017;DHT22;9641;51.494;6.670;2023-04-01T11:46:56;10.70;99.90
19017;DHT22;9641;51.494;6.670;2023-04-01T11:49:46;10.80;99.90
19017;DHT22;9641;51.494;6.670;2023-04-01T11:52:44;10.70;99.90
19017;DHT22;9641;51.494;6.670;2023-04-01T11:55:28;10.70;99.90
19017;DHT22;9641;51.494;6.670;2023-04-01T11:58:29;10.80;99.90
19017;DHT22;9641;51.494;6.670;2023-04-01T12:01:21;10.90;99.90
19017;DHT22;9641;51.494;6.670;2023-04-01T12:06:50;11.00;99.90
19017;DHT22;9641;51.494;6.670;2023-04-01T12:09:25;11.00;99.90
19017;DHT22;9641;51.494;6.670;2023-04-01T12:12:09;10.90;99.90
19017;DHT22;9641;51.494;6.670;2023-04-01T12:14:42;10.80;99.90
19017;DHT22;9641;51.494;6.670;2023-04-01T12:17:20;10.70;99.90
19017;DHT22;9641;51.494;6.670;2023-04-01T12:19:53;10.60;99.90
19017;DHT22;9641;51.494;6.670;2023-04-01T12:22:30;10.60;99.90
19017;DHT22;9641;51.494;6.670;2023-04-01T12:25:14;10.60;99.90
19017;DHT22;9641;51.494;6.670;2023-04-01T12:27:49;10.60;99.90
19017;DHT22;9641;51.494;6.670;2023-04-01T12:30:26;10.60;99.90
19017;DHT22;9641;51.494;6.670;2023-04-01T12:33:05;10.50;99.90
19017;DHT22;9641;51.494;6.670;2023-04-01T12:35:46;10.50;99.90
19017;DHT22;9641;51.494;6.670;2023-04-01T12:38:38;10.60;99.90
19017;DHT22;9641;51.494;6.670;2023-04-01T12:41:14;10.70;99.90
19017;DHT22;9641;51.494;6.670;2023-04-01T12:44:11;10.60;99.90
19017;DHT22;9641;51.494;6.670;2023-04-01T12:47:04;10.50;99.90
19017;DHT22;9641;51.494;6.670;2023-04-01T12:49:55;10.50;99.90
19017;DHT22;9641;51.494;6.670;2023-04-01T12:52:39;10.70;99.90
19017;DHT22;9641;51.494;6.670;2023-04-01T12:55:35;10.70;99.90
19017;DHT22;9641;51.494;6.670;2023-04-01T12:58:20;10.70;99.90
19017;DHT22;9641;51.494;6.670;2023-04-01T13:01:02;10.70;99.90
19017;DHT22;9641;51.494;6.670;2023-04-01T13:03:44;10.70;99.90
19017;DHT22;9641;51.494;6.670;2023-04-01T13:06:23;10.80;99.90
19017;DHT22;9641;51.494;6.670;2023-04-01T13:08:58;10.70;99.90
19017;DHT22;9641;51.494;6.670;2023-04-01T13:11:37;10.70;99.90
19017;DHT22;9641;51.494;6.670;2023-04-01T13:14:40;10.70;99.90
19017;DHT22;9641;51.494;6.670;2023-04-01T13:17:15;10.70;99.90
19017;DHT22;9641;51.494;6.670;2023-04-01T13:19:48;10.60;99.90
19017;DHT22;9641;51.494;6.670;2023-04-01T13:22:20;10.60;99.90
19017;DHT22;9641;51.494;6.670;2023-04-01T13:24:57;10.50;99.90
19017;DHT22;9641;51.494;6.670;2023-04-01T13:27:33;10.50;99.90
19017;DHT22;9641;51.494;6.670;2023-04-01T13:30:21;10.50;99.90
19017;DHT22;9641;51.494;6.670;2023-04-01T13:32:57;10.60;99.90
19017;DHT22;9641;51.494;6.670;2023-04-01T13:35:35;10.50;99.90
19017;DHT22;9641;51.494;6.670;2023-04-01T13:38:30;10.50;99.90
19017;DHT22;9641;51.494;6.670;2023-04-01T13:41:05;10.50;99.90
19017;DHT22;9641;51.494;6.670;2023-04-01T13:43:36;10.50;99.90
19017;DHT22;9641;51.494;6.670;2023-04-01T13:46:27;10.50;99.90
19017;DHT22;9641;51.494;6.670;2023-04-01T13:49:12;10.50;99.90
19017;DHT22;9641;51.494;6.670;2023-04-01T13:52:16;10.60;99.90
19017;DHT22;9641;51.494;6.670;2023-04-01T13:57:59;10.60;99.90
19017;DHT22;9641;51.494;6.670;2023-04-01T14:00:42;10.60;99.90
19017;DHT22;9641;51.494;6.670;2023-04-01T14:03:28;10.70;99.90
19017;DHT22;9641;51.494;6.670;2023-04-01T14:06:05;10.60;99.90
19017;DHT22;9641;51.494;6.670;2023-04-01T14:09:01;10.60;99.90
19017;DHT22;9641;51.494;6.670;2023-04-01T14:11:39;10.70;99.90
19017;DHT22;9641;51.494;6.670;2023-04-01T14:14:14;10.70;99.90
19017;DHT22;9641;51.494;6.670;2023-04-01T14:17:14;10.70;99.90
19017;DHT22;9641;51.494;6.670;2023-04-01T14:20:13;10.60;99.90
19017;DHT22;9641;51.494;6.670;2023-04-01T14:22:50;10.60;99.90
19017;DHT22;9641;51.494;6.670;2023-04-01T14:25:39;10.60;99.90
19017;DHT22;9641;51.494;6.670;2023-04-01T14:28:18;10.60;99.90
19017;DHT22;9641;51.494;6.670;2023-04-01T14:30:59;10.50;99.90
19017;DHT22;9641;51.494;6.670;2023-04-01T14:33:38;10.50;99.90
19017;DHT22;9641;51.494;6.670;2023-04-01T14:36:33;10.60;99.90
19017;DHT22;9641;51.494;6.670;2023-04-01T14:39:15;10.60;99.90
19017;DHT22;9641;51.494;6.670;2023-04-01T14:41:58;10.60;99.90
19017;DHT22;9641;51.494;6.670;2023-04-01T14:47:46;10.60;99.90
19017;DHT22;9641;51.494;6.670;2023-04-01T14:50:16;10.60;99.90
19017;DHT22;9641;51.494;6.670;2023-04-01T14:52:55;10.60;99.90
19017;DHT22;9641;51.494;6.670;2023-04-01T14:55:31;10.60;99.90
19017;DHT22;9641;51.494;6.670;2023-04-01T14:58:08;10.60;99.90
19017;DHT22;9641;51.494;6.670;2023-04-01T15:00:47;10.70;99.90
19017;DHT22;9641;51.494;6.670;2023-04-01T15:03:20;10.70;99.90
19017;DHT22;9641;51.494;6.670;2023-04-01T15:05:50;10.80;99.90
19017;DHT22;9641;51.494;6.670;2023-04-01T15:08:23;10.80;99.90
19017;DHT22;9641;51.494;6.670;2023-04-01T15:10:59;10.70;99.90
19017;DHT22;9641;51.494;6.670;2023-04-01T15:13:53;10.70;99.90
19017;DHT22;9641;51.494;6.670;2023-04-01T15:16:30;10.70;99.90
19017;DHT22;9641;51.494;6.670;2023-04-01T15:19:09;10.60;99.90
19017;DHT22;9641;51.494;6.670;2023-04-01T15:24:47;10.70;99.90
19017;DHT22;9641;51.494;6.670;2023-04-01T15:27:25;10.70;99.90
19017;DHT22;9641;51.494;6.670;2023-04-01T15:30:15;10.70;99.90
19017;DHT22;9641;51.494;6.670;2023-04-01T15:32:52;10.70;99.90
19017;DHT22;9641;51.494;6.670;2023-04-01T15:35:36;10.70;99.90
19017;DHT22;9641;51.494;6.670;2023-04-01T15:38:08;10.60;99.90
19017;DHT22;9641;51.494;6.670;2023-04-01T15:40:43;10.70;99.90
19017;DHT22;9641;51.494;6.670;2023-04-01T15:43:23;10.70;99.90
19017;DHT22;9641;51.494;6.670;2023-04-01T15:45:58;10.70;99.90
19017;DHT22;9641;51.494;6.670;2023-04-01T15:48:54;10.80;99.90
19017;DHT22;9641;51.494;6.670;2023-04-01T15:51:44;10.70;99.90
19017;DHT22;9641;51.494;6.670;2023-04-01T15:54:27;10.80;99.90
19017;DHT22;9641;51.494;6.670;2023-04-01T15:57:09;10.80;99.90
19017;DHT22;9641;51.494;6.670;2023-04-01T15:59:58;10.80;99.90
19017;DHT22;9641;51.494;6.670;2023-04-01T16:02:44;10.80;99.90
19017;DHT22;9641;51.494;6.670;2023-04-01T16:05:25;10.80;99.90
19017;DHT22;9641;51.494;6.670;2023-04-01T16:08:37;10.60;99.90
19017;DHT22;9641;51.494;6.670;2023-04-01T16:11:17;10.60;99.90
19017;DHT22;9641;51.494;6.670;2023-04-01T16:13:54;10.60;99.90
19017;DHT22;9641;51.494;6.670;2023-04-01T16:16:38;10.70;99.90
19017;DHT22;9641;51.494;6.670;2023-04-01T16:19:32;10.60;99.90
19017;DHT22;9641;51.494;6.670;2023-04-01T16:22:19;10.60;99.90
19017;DHT22;9641;51.494;6.670;2023-04-01T16:25:13;10.60;99.90
19017;DHT22;9641;51.494;6.670;2023-04-01T16:28:15;10.50;99.90
19017;DHT22;9641;51.494;6.670;2023-04-01T16:30:55;10.50;99.90
19017;DHT22;9641;51.494;6.670;2023-04-01T16:33:32;10.50;99.90
19017;DHT22;9641;51.494;6.670;2023-04-01T16:36:10;10.50;99.90
19017;DHT22;9641;51.494;6.670;2023-04-01T16:38:41;10.60;99.90
19017;DHT22;9641;51.494;6.670;2023-04-01T16:41:17;10.60;99.90
19017;DHT22;9641;51.494;6.670;2023-04-01T16:43:46;10.70;99.90
19017;DHT22;9641;51.494;6.670;2023-04-01T16:46:27;10.60;99.90
19017;DHT22;9641;51.494;6.670;2023-04-01T16:49:00;10.60;99.90
19017;DHT22;9641;51.494;6.670;2023-04-01T16:51:44;10.50;99.90
19017;DHT22;9641;51.494;6.670;2023-04-01T16:54:17;10.50;99.90
19017;DHT22;9641;51.494;6.670;2023-04-01T16:56:49;10.60;99.90
19017;DHT22;9641;51.494;6.670;2023-04-01T16:59:21;10.60;99.90
19017;DHT22;9641;51.494;6.670;2023-04-01T17:01:53;10.50;99.90
19017;DHT22;9641;51.494;6.670;2023-04-01T17:04:29;10.50;99.90
19017;DHT22;9641;51.494;6.670;2023-04-01T17:07:05;10.50;99.90
19017;DHT22;9641;51.494;6.670;2023-04-01T17:09:46;10.50;99.90
19017;DHT22;9641;51.494;6.670;2023-04-01T17:12:24;10.40;99.90
19017;DHT22;9641;51.494;6.670;2023-04-01T17:14:58;10.40;99.90
19017;DHT22;9641;51.494;6.670;2023-04-01T17:17:37;10.40;99.90
19017;DHT22;9641;51.494;6.670;2023-04-01T17:20:19;10.40;99.90
19017;DHT22;9641;51.494;6.670;2023-04-01T17:22:51;10.40;99.90
19017;DHT22;9641;51.494;6.670;2023-04-01T17:25:35;10.30;99.90
19017;DHT22;9641;51.494;6.670;2023-04-01T17:28:14;10.40;99.90
19017;DHT22;9641;51.494;6.670;2023-04-01T17:30:50;10.40;99.90
19017;DHT22;9641;51.494;6.670;2023-04-01T17:33:46;10.40;99.90
19017;DHT22;9641;51.494;6.670;2023-04-01T17:36:25;10.40;99.90
19017;DHT22;9641;51.494;6.670;2023-04-01T17:39:15;10.40;99.90
19017;DHT22;9641;51.494;6.670;2023-04-01T17:41:48;10.40;99.90
19017;DHT22;9641;51.494;6.670;2023-04-01T17:44:33;10.40;99.90
19017;DHT22;9641;51.494;6.670;2023-04-01T17:47:19;10.40;99.90
19017;DHT22;9641;51.494;6.670;2023-04-01T17:50:00;10.30;99.90
19017;DHT22;9641;51.494;6.670;2023-04-01T17:52:31;10.30;99.90
19017;DHT22;9641;51.494;6.670;2023-04-01T17:55:26;10.40;99.90
19017;DHT22;9641;51.494;6.670;2023-04-01T17:58:02;10.40;99.90
19017;DHT22;9641;51.494;6.670;2023-04-01T18:00:36;10.40;99.90
19017;DHT22;9641;51.494;6.670;2023-04-01T18:03:15;10.40;99.90